Terminal Aerodrome Forecast
Issued by NWS

Home | Current Version | Previous Version | Text Only | Print | Product List | Glossary On
Versions: 1 2 3 4 5 6 7 8 9 10 11 12 13 14
000
FTUS45 KRIW 280500
TAFBPI
TAF
KBPI 280529Z 2806/2906 VRB05KT P6SM SCT200
     FM281200 VRB05KT P6SM SCT120 BKN200
     FM281800 16008KT P6SM VCSH SCT090 BKN150
     FM282000 VRB15G25KT P6SM VCTS SCT080CB BKN120
     FM290300 VRB06KT P6SM VCSH SCT040 OVC080=

USA.gov is the U.S. government's official web portal to all federal, state and local government web resources and services.